Time;durP1;ratioP1;P1;durP2;ratioP2;P2;SDS_P1;SDS_P2;PMS_P1;PMS_P2;Temp;Humidity;BMP_temperature;BMP_pressure;BME280_temperature;BME280_humidity;BME280_pressure;Samples;Min_cycle;Max_cycle;Signal;HPM_P1;HPM_P2
2023/03/14 00:00:21;;;;;;;4.53;1.30;;;12.90;81.50;;;;;;5087321;28;20456;-64
2023/03/14 00:03:01;;;;;;;3.10;0.90;;;12.80;81.40;;;;;;5083675;28;20468;-64
2023/03/14 00:05:42;;;;;;;3.03;0.80;;;12.80;81.40;;;;;;5085868;28;20912;-63
2023/03/14 00:08:12;;;;;;;3.57;1.10;;;12.80;81.40;;;;;;5084104;28;20464;-64
2023/03/14 00:10:47;;;;;;;4.00;1.40;;;12.80;81.60;;;;;;5083977;28;20492;-64
2023/03/14 00:13:19;;;;;;;3.00;0.90;;;12.80;81.60;;;;;;5087156;28;20525;-65
2023/03/14 00:15:50;;;;;;;3.27;1.20;;;12.80;81.50;;;;;;5084507;28;21161;-64
2023/03/14 00:18:28;;;;;;;4.20;0.80;;;12.80;81.50;;;;;;5082435;28;20472;-64
2023/03/14 00:20:59;;;;;;;3.40;0.77;;;12.80;81.60;;;;;;5081973;28;20464;-64
2023/03/14 00:23:33;;;;;;;3.30;1.00;;;12.80;81.60;;;;;;5084506;28;20920;-65
2023/03/14 00:26:05;;;;;;;3.13;0.90;;;12.70;81.50;;;;;;5083961;28;20467;-65
2023/03/14 00:28:39;;;;;;;5.33;1.00;;;12.80;81.50;;;;;;5085012;28;20463;-65
2023/03/14 00:31:17;;;;;;;3.60;1.07;;;12.80;81.60;;;;;;5085151;28;20487;-64
2023/03/14 00:33:47;;;;;;;3.40;0.90;;;12.80;81.50;;;;;;5088644;28;20460;-65
2023/03/14 00:36:17;;;;;;;3.63;0.90;;;12.80;81.40;;;;;;5088031;28;20475;-64
2023/03/14 00:38:55;;;;;;;4.40;1.20;;;12.80;81.40;;;;;;5090764;28;20485;-64
2023/03/14 00:41:28;;;;;;;3.60;1.10;;;12.80;81.40;;;;;;5087635;28;20456;-64
2023/03/14 00:44:03;;;;;;;6.67;0.93;;;12.80;81.30;;;;;;5088350;28;20966;-64
2023/03/14 00:46:41;;;;;;;2.80;0.80;;;12.80;81.10;;;;;;5087827;28;20444;-63
2023/03/14 00:49:13;;;;;;;3.37;0.90;;;12.80;81.20;;;;;;5090915;28;20521;-64
2023/03/14 00:54:28;;;;;;;5.27;1.00;;;12.80;81.20;;;;;;5088625;28;20464;-64
2023/03/14 00:57:07;;;;;;;3.90;1.10;;;12.70;81.20;;;;;;5075088;28;20587;-64
2023/03/14 00:59:41;;;;;;;3.80;1.20;;;12.70;81.20;;;;;;5090851;28;20491;-64
2023/03/14 01:02:20;;;;;;;3.27;1.00;;;12.70;81.40;;;;;;5088651;28;20481;-64
2023/03/14 01:04:53;;;;;;;4.70;1.27;;;12.70;81.40;;;;;;5071026;28;20483;-65
2023/03/14 01:07:26;;;;;;;3.20;1.20;;;12.70;81.30;;;;;;5088669;28;21160;-64
2023/03/14 01:10:08;;;;;;;3.67;1.17;;;12.70;81.30;;;;;;5071211;28;20461;-65
2023/03/14 01:12:43;;;;;;;5.70;1.40;;;12.70;81.30;;;;;;5088862;28;20714;-64
2023/03/14 01:15:17;;;;;;;3.40;1.10;;;12.80;81.20;;;;;;5088756;28;20476;-65
2023/03/14 01:17:56;;;;;;;3.80;1.23;;;12.80;81.10;;;;;;5089698;28;20948;-64
2023/03/14 01:20:31;;;;;;;5.00;1.37;;;12.80;81.10;;;;;;5071793;28;20479;-65
2023/03/14 01:23:02;;;;;;;3.53;1.20;;;12.70;81.00;;;;;;5086494;28;20433;-65
2023/03/14 01:25:43;;;;;;;4.10;1.03;;;12.70;81.10;;;;;;5089953;28;20915;-64
2023/03/14 01:28:15;;;;;;;3.60;1.10;;;12.70;81.10;;;;;;5071110;28;20458;-65
2023/03/14 01:30:48;;;;;;;3.67;1.03;;;12.70;81.00;;;;;;5063642;28;21170;-64
2023/03/14 01:33:20;;;;;;;5.20;1.07;;;12.70;81.00;;;;;;5089977;28;20492;-65
2023/03/14 01:36:01;;;;;;;3.83;1.03;;;12.70;81.00;;;;;;5068253;28;20466;-64
2023/03/14 01:38:37;;;;;;;3.03;0.90;;;12.70;81.00;;;;;;5089506;28;21258;-65
2023/03/14 01:41:13;;;;;;;3.90;1.07;;;12.70;80.90;;;;;;5089208;28;20471;-65
2023/03/14 01:43:46;;;;;;;3.50;1.10;;;12.70;80.80;;;;;;5087897;28;20468;-65
2023/03/14 01:46:31;;;;;;;3.23;0.93;;;12.70;80.70;;;;;;5082951;28;20546;-65
2023/03/14 01:49:17;;;;;;;3.17;0.83;;;12.70;80.70;;;;;;5068459;28;20498;-62
2023/03/14 01:52:03;;;;;;;3.20;0.90;;;12.70;80.80;;;;;;5071769;28;20554;-65
2023/03/14 01:54:40;;;;;;;4.13;0.90;;;12.60;80.80;;;;;;5085473;28;20517;-63
2023/03/14 01:57:24;;;;;;;5.10;0.93;;;12.60;80.80;;;;;;5088668;28;20455;-65
2023/03/14 02:00:03;;;;;;;5.50;1.07;;;12.70;80.60;;;;;;5084441;28;20456;-62
2023/03/14 02:02:56;;;;;;;5.37;1.20;;;12.70;80.50;;;;;;5088477;28;20468;-65
2023/03/14 02:05:38;;;;;;;10.10;1.50;;;12.60;80.50;;;;;;5065177;28;20563;-62
2023/03/14 02:08:24;;;;;;;4.27;1.17;;;12.60;80.60;;;;;;5087987;28;20464;-62
2023/03/14 02:11:00;;;;;;;3.20;0.90;;;12.60;80.70;;;;;;5088929;28;20496;-62
2023/03/14 02:14:09;;;;;;;4.67;1.23;;;12.60;80.50;;;;;;5088205;28;20949;-63
2023/03/14 02:17:03;;;;;;;4.57;1.30;;;12.60;80.70;;;;;;5087221;28;21094;-65
2023/03/14 02:20:15;;;;;;;3.07;0.90;;;12.60;80.70;;;;;;5071379;28;20496;-65
2023/03/14 02:23:01;;;;;;;5.40;1.70;;;12.60;80.70;;;;;;5085440;28;21197;-65
2023/03/14 02:25:45;;;;;;;4.77;1.17;;;12.60;80.60;;;;;;5067717;28;20470;-64
2023/03/14 02:28:34;;;;;;;3.03;1.03;;;12.60;80.60;;;;;;5087564;28;20445;-65
2023/03/14 02:31:09;;;;;;;4.33;1.30;;;12.60;80.60;;;;;;5085028;28;20783;-65
2023/03/14 02:33:42;;;;;;;3.57;1.20;;;12.60;80.70;;;;;;5086719;28;20470;-65
2023/03/14 02:36:18;;;;;;;4.17;1.10;;;12.60;80.50;;;;;;5087967;28;20472;-65
2023/03/14 02:39:01;;;;;;;2.80;0.73;;;12.60;80.50;;;;;;5086985;28;20594;-64
2023/03/14 02:41:36;;;;;;;7.13;1.53;;;12.60;80.40;;;;;;5086526;28;20472;-64
2023/03/14 02:44:12;;;;;;;6.87;1.17;;;12.60;80.40;;;;;;5068115;28;20458;-64
2023/03/14 02:46:53;;;;;;;4.13;1.33;;;12.60;80.30;;;;;;5086962;28;20464;-64
2023/03/14 02:49:23;;;;;;;3.30;1.10;;;12.60;80.40;;;;;;5088501;28;20557;-64
2023/03/14 02:51:54;;;;;;;4.97;1.20;;;12.60;80.50;;;;;;5089533;28;20515;-62
2023/03/14 02:54:36;;;;;;;4.97;1.30;;;12.60;80.50;;;;;;5086554;28;20467;-64
2023/03/14 02:57:09;;;;;;;5.50;1.37;;;12.50;80.50;;;;;;5087842;28;20473;-64
2023/03/14 02:59:56;;;;;;;4.90;1.03;;;12.50;80.50;;;;;;5089049;28;20459;-64
2023/03/14 03:02:28;;;;;;;8.30;1.13;;;12.50;80.50;;;;;;5064572;28;20496;-65
2023/03/14 03:05:17;;;;;;;5.27;1.30;;;12.40;80.50;;;;;;5086975;28;20459;-65
2023/03/14 03:07:46;;;;;;;3.17;0.97;;;12.50;80.60;;;;;;5072872;28;20811;-64
2023/03/14 03:10:26;;;;;;;3.20;1.20;;;12.40;80.60;;;;;;5080388;28;20494;-64
2023/03/14 03:13:03;;;;;;;5.60;1.20;;;12.40;80.60;;;;;;5085702;28;20475;-64
2023/03/14 03:15:41;;;;;;;7.23;1.00;;;12.40;80.70;;;;;;5084654;28;20459;-65
2023/03/14 03:18:13;;;;;;;3.50;1.20;;;12.40;80.70;;;;;;5068048;28;20470;-64
2023/03/14 03:20:57;;;;;;;3.80;0.90;;;12.40;80.70;;;;;;5081933;28;20459;-64
2023/03/14 03:23:29;;;;;;;3.67;0.90;;;12.50;80.60;;;;;;5086246;28;20475;-64
2023/03/14 03:26:03;;;;;;;4.57;1.20;;;12.40;80.60;;;;;;5078088;28;20479;-64
2023/03/14 03:28:43;;;;;;;3.67;1.20;;;12.40;80.60;;;;;;5068541;28;20456;-64
2023/03/14 03:31:22;;;;;;;4.83;1.30;;;12.40;80.60;;;;;;5087630;28;20479;-64
2023/03/14 03:33:55;;;;;;;3.87;0.90;;;12.40;80.60;;;;;;5068820;28;20837;-64
2023/03/14 03:36:29;;;;;;;4.77;1.00;;;12.40;80.70;;;;;;5086716;28;20459;-65
2023/03/14 03:39:09;;;;;;;4.40;1.30;;;12.40;80.70;;;;;;5090033;28;20462;-65
2023/03/14 03:41:42;;;;;;;3.00;1.00;;;12.40;80.70;;;;;;5069722;28;20470;-65
2023/03/14 03:45:22;;;;;;;6.50;1.70;;;12.40;80.60;;;;;;5089277;28;20503;-64
2023/03/14 03:48:00;;;;;;;4.67;1.63;;;12.40;80.60;;;;;;5088451;28;20458;-65
2023/03/14 03:50:30;;;;;;;3.70;1.20;;;12.30;80.70;;;;;;5071193;28;20460;-64
2023/03/14 03:53:14;;;;;;;4.87;1.50;;;12.40;80.70;;;;;;5090081;28;20486;-64
2023/03/14 03:56:10;;;;;;;6.07;1.30;;;12.40;80.60;;;;;;5070685;28;20463;-64
2023/03/14 03:58:45;;;;;;;5.60;1.67;;;12.30;80.70;;;;;;5064638;28;21038;-64
2023/03/14 04:01:13;;;;;;;4.43;1.43;;;12.30;80.70;;;;;;5069510;28;20484;-65
2023/03/14 04:03:47;;;;;;;4.30;1.23;;;12.20;80.80;;;;;;5066912;28;20499;-64
2023/03/14 04:06:22;;;;;;;4.47;1.60;;;12.30;80.90;;;;;;5086319;28;20459;-64
2023/03/14 04:09:01;;;;;;;7.93;1.50;;;12.20;80.80;;;;;;5083300;28;20461;-63
2023/03/14 04:12:02;;;;;;;4.90;1.73;;;12.20;80.80;;;;;;5070372;28;20464;-64
2023/03/14 04:14:52;;;;;;;5.97;1.83;;;12.30;80.80;;;;;;5080796;28;20478;-64
2023/03/14 04:17:25;;;;;;;3.90;1.57;;;12.30;80.60;;;;;;5083225;28;20474;-64
2023/03/14 04:20:11;;;;;;;3.93;1.53;;;12.30;80.60;;;;;;5087791;28;20484;-64
2023/03/14 04:22:48;;;;;;;4.80;1.97;;;12.30;80.60;;;;;;5086901;28;20452;-64
2023/03/14 04:25:24;;;;;;;7.37;1.80;;;12.30;80.60;;;;;;5083114;28;20942;-64
2023/03/14 04:27:59;;;;;;;5.53;1.40;;;12.30;80.50;;;;;;5087561;28;20575;-64
2023/03/14 04:30:40;;;;;;;5.80;1.50;;;12.30;80.50;;;;;;5084399;28;20514;-63
2023/03/14 04:33:18;;;;;;;5.97;1.33;;;12.30;80.60;;;;;;5070993;28;20464;-64
2023/03/14 04:36:01;;;;;;;4.90;1.63;;;12.20;80.50;;;;;;5092076;28;20492;-63
2023/03/14 04:38:43;;;;;;;3.77;1.50;;;12.20;80.40;;;;;;5073045;28;20556;-64
2023/03/14 04:41:22;;;;;;;7.90;1.70;;;12.20;80.60;;;;;;5092163;28;20529;-64
2023/03/14 04:43:54;;;;;;;3.40;1.37;;;12.20;80.60;;;;;;5074891;28;20499;-64
2023/03/14 04:46:28;;;;;;;4.50;1.20;;;12.20;80.50;;;;;;5074301;28;20506;-64
2023/03/14 04:49:08;;;;;;;7.50;1.90;;;12.20;80.40;;;;;;5091424;28;20462;-64
2023/03/14 04:51:50;;;;;;;6.43;1.40;;;12.20;80.30;;;;;;5092125;28;20515;-64
2023/03/14 04:54:30;;;;;;;4.80;1.50;;;12.20;80.20;;;;;;5086112;28;20546;-64
2023/03/14 04:57:04;;;;;;;5.03;1.27;;;12.20;80.20;;;;;;5074457;28;20541;-64
2023/03/14 04:59:41;;;;;;;5.90;1.10;;;12.20;80.10;;;;;;5090158;28;20522;-64
2023/03/14 05:02:42;;;;;;;4.90;1.20;;;12.20;80.20;;;;;;5080246;28;20470;-64
2023/03/14 05:05:44;;;;;;;5.70;1.37;;;12.20;80.10;;;;;;5092221;28;20455;-64
2023/03/14 05:08:39;;;;;;;3.67;1.53;;;12.20;80.10;;;;;;5092530;28;20524;-64
2023/03/14 05:11:45;;;;;;;5.93;1.73;;;12.20;79.90;;;;;;5087514;28;20514;-64
2023/03/14 05:14:39;;;;;;;4.43;1.13;;;12.10;79.90;;;;;;5092631;28;20480;-65
2023/03/14 05:17:41;;;;;;;4.27;1.60;;;12.10;79.90;;;;;;4998263;28;20473;-63
2023/03/14 05:20:37;;;;;;;6.47;1.13;;;12.10;80.00;;;;;;5081415;28;20469;-64
2023/03/14 05:23:47;;;;;;;6.37;1.40;;;12.10;79.90;;;;;;5090968;28;20470;-65
2023/03/14 05:26:44;;;;;;;6.83;1.60;;;12.10;80.00;;;;;;5059717;28;20541;-63
2023/03/14 05:29:32;;;;;;;4.63;1.13;;;12.10;80.00;;;;;;5080114;28;20459;-64
2023/03/14 05:32:26;;;;;;;3.67;1.10;;;12.10;80.00;;;;;;5068797;28;20487;-63
2023/03/14 05:35:38;;;;;;;7.57;1.77;;;12.10;80.00;;;;;;5085935;28;20888;-63
2023/03/14 05:38:44;;;;;;;11.97;1.60;;;12.10;79.90;;;;;;5071130;28;20547;-63
2023/03/14 05:41:40;;;;;;;7.27;1.67;;;12.10;79.80;;;;;;5090139;28;20557;-63
2023/03/14 05:44:45;;;;;;;9.20;1.50;;;12.10;79.60;;;;;;5017730;28;20467;-64
2023/03/14 05:47:43;;;;;;;4.47;1.30;;;12.10;79.70;;;;;;5057255;28;20474;-63
2023/03/14 05:50:36;;;;;;;7.97;1.47;;;12.10;79.50;;;;;;5089116;28;20464;-63
2023/03/14 05:53:33;;;;;;;5.83;1.00;;;12.10;79.30;;;;;;5085008;28;20477;-64
2023/03/14 05:56:38;;;;;;;4.50;1.10;;;12.00;79.40;;;;;;5066756;28;20919;-63
2023/03/14 05:59:37;;;;;;;6.03;1.30;;;12.00;79.40;;;;;;5082398;28;20476;-64
2023/03/14 06:02:17;;;;;;;6.27;1.50;;;12.00;79.40;;;;;;5089003;28;20995;-63
2023/03/14 06:05:13;;;;;;;6.27;1.10;;;12.00;79.30;;;;;;5091428;28;20752;-64
2023/03/14 06:07:45;;;;;;;5.83;1.07;;;12.00;79.30;;;;;;5089117;28;20457;-64
2023/03/14 06:10:19;;;;;;;5.20;1.30;;;12.10;79.10;;;;;;5082252;28;20567;-64
2023/03/14 06:12:54;;;;;;;6.00;1.30;;;12.10;79.00;;;;;;5074956;28;20480;-63
2023/03/14 06:15:25;;;;;;;5.00;1.43;;;12.00;79.10;;;;;;5069567;28;20515;-63
2023/03/14 06:17:56;;;;;;;6.50;1.03;;;12.10;79.00;;;;;;5090479;28;20464;-64
2023/03/14 06:20:32;;;;;;;3.40;0.90;;;12.10;78.80;;;;;;5072833;28;20476;-64
2023/03/14 06:23:06;;;;;;;7.53;1.17;;;12.20;78.70;;;;;;5068119;28;20489;-63
2023/03/14 06:25:38;;;;;;;5.57;1.27;;;12.10;78.50;;;;;;5089402;28;21753;-64
2023/03/14 06:28:11;;;;;;;4.53;0.90;;;12.10;78.60;;;;;;5084559;28;20572;-63
2023/03/14 06:30:40;;;;;;;6.70;1.10;;;12.10;78.70;;;;;;5060337;28;20480;-63
2023/03/14 06:33:19;;;;;;;7.50;1.33;;;12.10;78.60;;;;;;5061328;28;20469;-64
2023/03/14 06:35:53;;;;;;;5.07;0.87;;;12.10;78.50;;;;;;5062967;28;20468;-64
2023/03/14 06:38:27;;;;;;;4.83;0.90;;;12.00;78.60;;;;;;5076308;28;20468;-63
2023/03/14 06:41:07;;;;;;;4.17;1.27;;;12.10;78.40;;;;;;5065223;28;20548;-64
2023/03/14 06:43:44;;;;;;;8.17;1.57;;;12.00;78.60;;;;;;5063177;28;20460;-63
2023/03/14 06:46:17;;;;;;;3.63;0.90;;;12.10;78.50;;;;;;5073538;28;20472;-63
2023/03/14 06:48:51;;;;;;;5.00;1.07;;;12.10;78.30;;;;;;5065498;28;20482;-64
2023/03/14 06:51:30;;;;;;;7.70;1.50;;;12.10;78.20;;;;;;5073816;28;20472;-63
2023/03/14 06:54:07;;;;;;;3.83;1.10;;;12.10;78.20;;;;;;5061767;28;20794;-63
2023/03/14 06:56:41;;;;;;;5.23;1.23;;;12.10;78.10;;;;;;5062045;28;20543;-63
2023/03/14 06:59:18;;;;;;;3.97;0.90;;;12.00;78.20;;;;;;5068074;28;20461;-64
2023/03/14 07:01:50;;;;;;;6.07;1.53;;;12.00;78.10;;;;;;5061957;28;20485;-62
2023/03/14 07:04:30;;;;;;;5.77;1.37;;;12.00;78.10;;;;;;5065849;28;20490;-63
2023/03/14 07:07:02;;;;;;;9.20;1.17;;;12.00;78.10;;;;;;5068223;28;20456;-63
2023/03/14 07:09:40;;;;;;;4.00;1.00;;;12.00;78.10;;;;;;5066583;28;20509;-62
2023/03/14 07:12:21;;;;;;;4.93;1.50;;;12.00;78.10;;;;;;5064731;28;20463;-63
2023/03/14 07:14:53;;;;;;;3.93;1.20;;;12.00;78.00;;;;;;5061915;28;20895;-63
2023/03/14 07:17:33;;;;;;;6.37;1.27;;;11.90;77.90;;;;;;5062913;28;20457;-63
2023/03/14 07:20:07;;;;;;;4.70;0.93;;;11.90;78.10;;;;;;5066504;28;21135;-65
2023/03/14 07:22:43;;;;;;;3.60;1.07;;;12.00;78.20;;;;;;5064628;28;20471;-63
2023/03/14 07:25:14;;;;;;;7.57;1.47;;;11.90;78.20;;;;;;5066980;28;20495;-63
2023/03/14 07:27:48;;;;;;;4.27;1.23;;;12.00;78.20;;;;;;5058796;28;20453;-63
2023/03/14 07:30:34;;;;;;;4.73;1.30;;;12.10;78.00;;;;;;5060542;28;20527;-63
2023/03/14 07:33:09;;;;;;;6.23;1.30;;;12.10;77.80;;;;;;5067103;28;20488;-62
2023/03/14 07:35:42;;;;;;;4.30;1.10;;;12.10;77.90;;;;;;5063819;28;20489;-62
2023/03/14 07:38:13;;;;;;;4.37;1.00;;;12.10;78.00;;;;;;5065258;28;20554;-63
2023/03/14 07:41:01;;;;;;;5.63;1.13;;;12.10;78.00;;;;;;5082380;28;21022;-63
2023/03/14 07:43:39;;;;;;;4.83;1.37;;;12.10;77.80;;;;;;5066991;28;20472;-63
2023/03/14 07:46:14;;;;;;;4.17;1.20;;;12.10;77.80;;;;;;5065662;28;20458;-63
2023/03/14 07:48:47;;;;;;;4.43;1.27;;;12.20;77.90;;;;;;5062552;28;20494;-63
2023/03/14 07:51:18;;;;;;;4.43;1.57;;;12.10;78.00;;;;;;5058089;28;20748;-63
2023/03/14 07:53:50;;;;;;;6.33;1.10;;;12.20;78.00;;;;;;5065383;28;20476;-62
2023/03/14 07:56:28;;;;;;;6.80;1.30;;;12.30;77.70;;;;;;5065321;28;20925;-63
2023/03/14 07:59:01;;;;;;;8.70;1.50;;;12.20;77.70;;;;;;5066414;28;20463;-63
2023/03/14 08:01:36;;;;;;;4.90;1.17;;;12.30;77.70;;;;;;5063789;28;21232;-62
2023/03/14 08:04:09;;;;;;;4.43;1.03;;;12.20;77.70;;;;;;5063668;28;20471;-63
2023/03/14 08:06:51;;;;;;;4.07;1.13;;;12.30;77.70;;;;;;5081562;28;20473;-63
2023/03/14 08:09:19;;;;;;;4.60;1.50;;;12.30;77.70;;;;;;5066584;28;20517;-62
2023/03/14 08:11:51;;;;;;;4.27;1.37;;;12.30;77.90;;;;;;5065920;28;20533;-63
2023/03/14 08:14:23;;;;;;;3.63;1.00;;;12.30;77.90;;;;;;5063800;28;20470;-63
2023/03/14 08:16:56;;;;;;;6.70;1.53;;;12.30;77.70;;;;;;5065178;28;20465;-63
2023/03/14 08:19:28;;;;;;;4.50;1.20;;;12.30;77.70;;;;;;5065238;28;20465;-63
2023/03/14 08:22:03;;;;;;;5.77;1.40;;;12.30;77.70;;;;;;5062182;28;20470;-63
2023/03/14 08:24:34;;;;;;;6.97;1.30;;;12.30;77.90;;;;;;5065434;28;20481;-62
2023/03/14 08:27:06;;;;;;;7.73;1.20;;;12.40;77.90;;;;;;5064598;28;20472;-62
2023/03/14 08:29:41;;;;;;;4.40;1.03;;;12.40;78.00;;;;;;5063753;28;20996;-62
2023/03/14 08:32:14;;;;;;;4.80;1.40;;;12.40;77.90;;;;;;5060938;28;20490;-63
2023/03/14 08:34:53;;;;;;;6.70;1.67;;;12.40;78.00;;;;;;5063615;28;20480;-63
2023/03/14 08:37:27;;;;;;;3.73;1.27;;;12.50;78.00;;;;;;5066791;28;20900;-63
2023/03/14 08:40:06;;;;;;;4.27;1.30;;;12.50;77.80;;;;;;5065416;28;20469;-66
2023/03/14 08:42:39;;;;;;;4.33;1.20;;;12.50;77.80;;;;;;5064095;28;20465;-63
2023/03/14 08:45:17;;;;;;;4.37;1.17;;;12.50;77.90;;;;;;5067056;28;20455;-63
2023/03/14 08:48:03;;;;;;;7.10;1.63;;;12.50;78.10;;;;;;5063461;28;20458;-63
2023/03/14 08:50:38;;;;;;;4.60;1.50;;;12.60;78.20;;;;;;5064996;28;20461;-62
2023/03/14 08:53:09;;;;;;;5.80;1.33;;;12.60;78.30;;;;;;5064301;28;20459;-63
2023/03/14 08:55:43;;;;;;;6.53;1.43;;;12.60;78.30;;;;;;5063952;28;20491;-63
2023/03/14 09:01:04;;;;;;;9.10;1.83;;;12.70;78.50;;;;;;5062175;28;20535;-62
2023/03/14 09:03:48;;;;;;;5.90;1.00;;;12.70;78.50;;;;;;5064010;28;20456;-63
2023/03/14 09:06:22;;;;;;;4.30;1.00;;;12.70;78.70;;;;;;5062572;28;20457;-63
2023/03/14 09:08:54;;;;;;;3.47;0.90;;;12.70;78.70;;;;;;5060011;28;20462;-63
2023/03/14 09:11:24;;;;;;;4.60;0.90;;;12.70;78.80;;;;;;5063388;28;20529;-62
2023/03/14 09:13:56;;;;;;;3.20;0.90;;;12.80;78.90;;;;;;5062642;28;20960;-63
2023/03/14 09:16:26;;;;;;;4.40;0.80;;;12.90;78.90;;;;;;5060598;28;20547;-63
2023/03/14 09:19:01;;;;;;;4.27;1.33;;;12.90;78.80;;;;;;5063962;28;20461;-62
2023/03/14 09:21:32;;;;;;;6.97;1.20;;;12.90;78.80;;;;;;5067641;28;20473;-63
2023/03/14 09:24:07;;;;;;;3.73;1.13;;;13.00;78.80;;;;;;5063127;28;20485;-62
2023/03/14 09:26:35;;;;;;;3.43;0.90;;;12.90;78.90;;;;;;5070466;28;20468;-62
2023/03/14 09:29:07;;;;;;;4.00;1.10;;;13.00;78.90;;;;;;5068278;28;20549;-63
2023/03/14 09:31:41;;;;;;;6.40;1.30;;;13.00;78.90;;;;;;5068353;28;20599;-63
2023/03/14 09:34:12;;;;;;;5.20;1.00;;;13.00;78.90;;;;;;5071705;28;20531;-63
2023/03/14 09:36:44;;;;;;;3.50;1.10;;;13.00;78.90;;;;;;5068561;28;20485;-62
2023/03/14 09:39:15;;;;;;;3.50;1.07;;;13.00;78.90;;;;;;5072281;28;20456;-63
2023/03/14 09:41:47;;;;;;;4.83;1.27;;;13.10;78.60;;;;;;5066456;28;20472;-62
2023/03/14 09:44:22;;;;;;;3.80;1.00;;;13.10;78.50;;;;;;5066137;28;20484;-63
2023/03/14 09:47:09;;;;;;;4.03;0.93;;;13.00;78.60;;;;;;5062320;28;20473;-63
2023/03/14 09:49:43;;;;;;;3.67;1.00;;;13.00;78.60;;;;;;5064579;28;20464;-63
2023/03/14 09:52:20;;;;;;;4.73;0.90;;;13.00;78.70;;;;;;5063916;28;20466;-62
2023/03/14 09:54:53;;;;;;;4.80;1.53;;;13.00;78.50;;;;;;5069204;28;20792;-62
2023/03/14 09:57:25;;;;;;;3.83;1.00;;;13.10;78.50;;;;;;5065595;28;20576;-62
2023/03/14 10:00:09;;;;;;;3.43;0.70;;;13.10;78.50;;;;;;5070593;28;20515;-63
2023/03/14 10:02:46;;;;;;;11.00;1.53;;;13.10;78.60;;;;;;5074313;28;21001;-63
2023/03/14 10:05:29;;;;;;;5.70;0.87;;;13.20;78.60;;;;;;5069229;28;21163;-63
2023/03/14 10:08:02;;;;;;;7.20;1.07;;;13.20;78.50;;;;;;5062929;28;20468;-63
2023/03/14 10:10:41;;;;;;;2.70;0.70;;;13.30;78.40;;;;;;5065979;28;20468;-63
2023/03/14 10:13:21;;;;;;;4.03;0.87;;;13.30;78.30;;;;;;5063508;28;20458;-63
2023/03/14 10:15:55;;;;;;;4.67;1.13;;;13.30;78.40;;;;;;5067995;28;20480;-63
2023/03/14 10:18:26;;;;;;;7.10;1.33;;;13.20;78.50;;;;;;5066863;28;20474;-62
2023/03/14 10:21:18;;;;;;;7.10;1.43;;;13.30;78.60;;;;;;5070509;28;21135;-63
2023/03/14 10:23:50;;;;;;;3.77;0.90;;;13.30;78.60;;;;;;5067451;28;20522;-62
2023/03/14 10:26:33;;;;;;;4.00;0.70;;;13.30;78.50;;;;;;5065895;28;20445;-63
2023/03/14 10:29:16;;;;;;;4.70;1.13;;;13.30;78.50;;;;;;5069469;28;20546;-63
2023/03/14 10:31:58;;;;;;;3.13;1.07;;;13.40;78.30;;;;;;5065899;28;20482;-63
2023/03/14 10:34:29;;;;;;;3.20;0.93;;;13.30;78.40;;;;;;5068726;28;20454;-63
2023/03/14 10:37:07;;;;;;;5.47;0.90;;;13.30;78.50;;;;;;5063128;28;20486;-63
2023/03/14 10:39:43;;;;;;;3.83;1.37;;;13.30;78.60;;;;;;5069346;28;20462;-63
2023/03/14 10:42:24;;;;;;;5.83;0.90;;;13.20;78.60;;;;;;5068320;28;20467;-62
2023/03/14 10:45:07;;;;;;;2.90;0.70;;;13.30;78.70;;;;;;5068085;28;20465;-63
2023/03/14 10:47:52;;;;;;;3.00;0.80;;;13.30;78.70;;;;;;5067889;28;20470;-62
2023/03/14 10:50:26;;;;;;;3.23;0.90;;;13.40;78.50;;;;;;5064700;28;20477;-62
2023/03/14 10:53:10;;;;;;;3.10;1.20;;;13.30;78.60;;;;;;5062848;28;20938;-63
2023/03/14 10:55:47;;;;;;;2.80;0.90;;;13.40;78.50;;;;;;5067899;28;20469;-63
2023/03/14 10:58:24;;;;;;;2.87;0.80;;;13.40;78.40;;;;;;5069505;28;20477;-63
2023/03/14 11:01:03;;;;;;;3.40;1.47;;;13.40;78.50;;;;;;5058142;28;20487;-62
2023/03/14 11:03:37;;;;;;;3.53;1.03;;;13.30;78.50;;;;;;5065537;28;21146;-63
2023/03/14 11:06:15;;;;;;;2.80;0.90;;;13.30;78.50;;;;;;5062295;28;20530;-63
2023/03/14 11:08:54;;;;;;;3.90;1.10;;;13.20;78.50;;;;;;5065336;28;20462;-61
2023/03/14 11:11:31;;;;;;;4.80;1.10;;;13.20;78.60;;;;;;5067197;28;20461;-64
2023/03/14 11:14:20;;;;;;;3.00;1.10;;;13.10;78.80;;;;;;5066000;28;20474;-64
2023/03/14 11:17:03;;;;;;;3.10;1.10;;;13.10;79.00;;;;;;5065860;28;20567;-61
2023/03/14 11:19:59;;;;;;;3.57;1.10;;;13.10;79.10;;;;;;5064693;28;20494;-64
2023/03/14 11:22:41;;;;;;;3.10;1.03;;;13.10;79.00;;;;;;5067667;28;20454;-64
2023/03/14 11:25:34;;;;;;;3.67;1.10;;;13.10;79.20;;;;;;5064471;28;20449;-62
2023/03/14 11:28:17;;;;;;;4.83;1.50;;;13.10;79.30;;;;;;5066934;28;20952;-64
2023/03/14 11:30:55;;;;;;;4.53;1.20;;;13.00;79.60;;;;;;5065061;28;20467;-61
2023/03/14 11:33:32;;;;;;;3.30;1.13;;;13.10;79.50;;;;;;5056466;28;20780;-64
2023/03/14 11:36:07;;;;;;;3.40;1.20;;;13.00;79.70;;;;;;5066076;28;20454;-62
2023/03/14 11:38:44;;;;;;;2.90;0.97;;;13.00;79.80;;;;;;5062798;28;20450;-62
2023/03/14 11:41:21;;;;;;;3.57;1.20;;;13.00;79.80;;;;;;5067285;28;20456;-62
2023/03/14 11:43:58;;;;;;;4.90;1.27;;;12.90;80.10;;;;;;5062002;28;20460;-62
2023/03/14 11:46:31;;;;;;;2.90;1.17;;;12.90;80.30;;;;;;5072555;28;20459;-62
2023/03/14 11:49:11;;;;;;;3.67;1.13;;;12.90;80.30;;;;;;5065817;28;20450;-62
2023/03/14 11:55:38;;;;;;;7.43;0.90;;;13.00;80.30;;;;;;5065155;28;20514;-62
2023/03/14 11:58:26;;;;;;;3.67;1.07;;;13.00;80.50;;;;;;5063664;28;20473;-64
2023/03/14 12:00:58;;;;;;;3.30;0.90;;;13.00;80.50;;;;;;5068218;28;20874;-62
2023/03/14 12:03:43;;;;;;;3.10;0.93;;;13.00;80.40;;;;;;5068640;28;20833;-62
2023/03/14 12:06:21;;;;;;;2.80;0.60;;;13.00;80.50;;;;;;5060704;28;20792;-62
2023/03/14 12:08:55;;;;;;;3.10;0.80;;;13.00;80.70;;;;;;5065225;28;20929;-62
2023/03/14 12:11:38;;;;;;;3.10;1.10;;;13.00;80.60;;;;;;5066212;28;20965;-62
2023/03/14 12:14:24;;;;;;;3.27;0.83;;;13.00;80.70;;;;;;5062464;28;20465;-64
2023/03/14 12:17:03;;;;;;;2.70;0.80;;;13.00;80.70;;;;;;5062308;28;20983;-65
2023/03/14 12:19:38;;;;;;;6.53;1.47;;;12.90;80.70;;;;;;5060410;28;20465;-62
2023/03/14 12:22:37;;;;;;;2.70;0.60;;;12.90;80.80;;;;;;5058782;28;20477;-62
2023/03/14 12:25:18;;;;;;;2.80;0.70;;;12.90;80.60;;;;;;5062674;28;20457;-62
2023/03/14 12:28:08;;;;;;;2.70;0.70;;;12.90;80.80;;;;;;5059542;28;20480;-63
2023/03/14 12:30:42;;;;;;;2.60;0.60;;;12.90;80.80;;;;;;5058903;28;20592;-63
2023/03/14 12:33:32;;;;;;;2.90;0.80;;;12.80;80.70;;;;;;5062980;28;20855;-64
2023/03/14 12:36:35;;;;;;;3.40;0.70;;;12.80;80.70;;;;;;5061639;28;20487;-63
2023/03/14 12:39:23;;;;;;;3.10;0.70;;;12.80;80.70;;;;;;5060877;28;20469;-63
2023/03/14 12:42:09;;;;;;;3.43;0.87;;;12.80;80.80;;;;;;5062608;28;21000;-63
2023/03/14 12:44:48;;;;;;;2.80;0.80;;;12.80;80.90;;;;;;5064391;28;20467;-64
2023/03/14 12:47:55;;;;;;;3.30;0.80;;;12.80;80.90;;;;;;5063315;28;20479;-64
2023/03/14 12:50:36;;;;;;;3.87;0.87;;;12.80;80.90;;;;;;5042217;28;20455;-63
2023/03/14 12:53:44;;;;;;;4.10;0.60;;;12.80;81.00;;;;;;5063388;28;20475;-62
2023/03/14 12:56:43;;;;;;;2.70;0.70;;;12.80;81.00;;;;;;5067698;28;20914;-63
2023/03/14 12:59:32;;;;;;;2.70;0.57;;;12.80;81.10;;;;;;5069221;28;20536;-63
2023/03/14 13:02:29;;;;;;;3.70;0.80;;;12.80;81.10;;;;;;5068620;28;21081;-63
2023/03/14 13:05:10;;;;;;;2.80;0.63;;;12.90;81.00;;;;;;5070418;28;20484;-63
2023/03/14 13:08:10;;;;;;;2.53;0.60;;;12.80;81.10;;;;;;5067076;28;21014;-63
2023/03/14 13:10:57;;;;;;;3.20;0.87;;;12.90;81.00;;;;;;5068777;28;20472;-62
2023/03/14 13:13:28;;;;;;;4.40;0.90;;;12.90;81.10;;;;;;5069526;28;20521;-61
2023/03/14 13:16:03;;;;;;;5.03;0.80;;;12.80;81.00;;;;;;5066427;28;20476;-64
2023/03/14 13:18:48;;;;;;;2.73;0.63;;;12.70;81.10;;;;;;5066649;28;20465;-62
2023/03/14 13:21:25;;;;;;;3.07;0.80;;;12.70;81.30;;;;;;5062148;28;20518;-66
2023/03/14 13:23:59;;;;;;;3.00;0.70;;;12.60;81.30;;;;;;5067220;28;20460;-64
2023/03/14 13:26:36;;;;;;;2.60;0.67;;;12.60;81.00;;;;;;5064619;28;20617;-64
2023/03/14 13:29:21;;;;;;;2.70;0.50;;;12.50;80.50;;;;;;5066592;28;20496;-64
2023/03/14 13:31:54;;;;;;;2.70;0.70;;;12.10;79.60;;;;;;5068485;28;20888;-65
2023/03/14 13:34:28;;;;;;;2.50;0.50;;;11.70;79.70;;;;;;5066969;28;20591;-64
2023/03/14 13:37:01;;;;;;;3.20;0.60;;;11.60;80.10;;;;;;5064987;28;20930;-64
2023/03/14 13:39:32;;;;;;;4.10;0.70;;;11.40;80.30;;;;;;5066136;28;20539;-65
2023/03/14 13:42:16;;;;;;;4.40;0.70;;;11.30;80.70;;;;;;5065743;28;20967;-63
2023/03/14 13:44:48;;;;;;;4.23;0.90;;;11.30;80.30;;;;;;5058991;28;20491;-65
2023/03/14 13:47:26;;;;;;;2.80;0.90;;;11.20;80.70;;;;;;5061984;28;21105;-65
2023/03/14 13:49:56;;;;;;;2.80;0.70;;;11.20;80.70;;;;;;5063360;28;20537;-64
2023/03/14 13:52:46;;;;;;;2.90;0.70;;;11.20;80.70;;;;;;5067010;28;20474;-64
2023/03/14 13:55:28;;;;;;;3.80;1.00;;;11.30;80.80;;;;;;5066184;28;20472;-64
2023/03/14 13:58:01;;;;;;;2.70;0.73;;;11.30;80.80;;;;;;5064306;28;20471;-64